Time;durP1;ratioP1;P1;durP2;ratioP2;P2;SDS_P1;SDS_P2;PMS_P1;PMS_P2;Temp;Humidity;BMP_temperature;BMP_pressure;BME280_temperature;BME280_humidity;BME280_pressure;Samples;Min_cycle;Max_cycle;Signal;HPM_P1;HPM_P2
2024/04/20 00:02:12;;;;;;;1.23;1.10;;;5.00;99.90;;;;;;5478701;26;20226;-55
2024/04/20 00:04:41;;;;;;;1.20;1.10;;;4.90;99.90;;;;;;5426368;26;20235;-56
2024/04/20 00:07:10;;;;;;;2.60;1.00;;;5.00;99.90;;;;;;5472942;26;20226;-55
2024/04/20 00:09:41;;;;;;;0.93;0.87;;;5.00;99.90;;;;;;5491135;26;20289;-51
2024/04/20 00:12:10;;;;;;;1.67;0.90;;;5.00;99.90;;;;;;5481756;26;20350;-56
2024/04/20 00:14:38;;;;;;;1.80;1.43;;;5.00;99.90;;;;;;5491435;26;20223;-54
2024/04/20 00:17:07;;;;;;;1.73;1.00;;;4.90;99.90;;;;;;5475346;26;20305;-55
2024/04/20 00:19:35;;;;;;;1.33;1.23;;;4.90;99.90;;;;;;5434003;26;20243;-53
2024/04/20 00:22:04;;;;;;;2.10;1.07;;;4.90;99.90;;;;;;5485831;26;20235;-56
2024/04/20 00:24:32;;;;;;;1.87;1.27;;;4.90;99.90;;;;;;5490203;26;20580;-51
2024/04/20 00:27:03;;;;;;;1.27;1.17;;;4.90;99.90;;;;;;5481817;26;20226;-54
2024/04/20 00:29:32;;;;;;;1.30;1.20;;;4.80;99.90;;;;;;5488492;26;20257;-55
2024/04/20 00:32:00;;;;;;;1.70;1.30;;;4.80;99.90;;;;;;5475774;26;20274;-55
2024/04/20 00:34:29;;;;;;;1.80;1.27;;;4.80;99.90;;;;;;5439543;26;20364;-50
2024/04/20 00:36:57;;;;;;;1.40;1.27;;;4.80;99.90;;;;;;5490369;25;20740;-55
2024/04/20 00:39:26;;;;;;;1.57;1.40;;;4.80;99.90;;;;;;5490314;26;20257;-53
2024/04/20 00:41:55;;;;;;;1.97;1.50;;;4.80;99.90;;;;;;5484790;26;20896;-56
2024/04/20 00:44:27;;;;;;;1.63;1.17;;;4.80;99.90;;;;;;5489963;26;20312;-55
2024/04/20 00:47:01;;;;;;;1.30;1.20;;;4.80;99.90;;;;;;5475868;26;20226;-55
2024/04/20 00:49:30;;;;;;;2.63;1.00;;;4.70;99.90;;;;;;5484502;26;20222;-51
2024/04/20 00:52:00;;;;;;;1.20;1.00;;;4.80;99.90;;;;;;5443793;26;20246;-56
2024/04/20 00:54:29;;;;;;;1.90;1.40;;;4.80;99.90;;;;;;5484053;26;21016;-52
2024/04/20 00:56:59;;;;;;;1.90;1.53;;;4.80;99.90;;;;;;5483088;25;20238;-54
2024/04/20 00:59:32;;;;;;;1.10;0.90;;;4.80;99.90;;;;;;5477097;25;20620;-54
2024/04/20 01:02:01;;;;;;;1.30;1.03;;;4.80;99.90;;;;;;5478470;26;20273;-55
2024/04/20 01:04:29;;;;;;;1.87;1.37;;;4.80;99.90;;;;;;5483231;26;20231;-55
2024/04/20 01:06:57;;;;;;;2.23;1.43;;;4.80;99.90;;;;;;5446783;26;20623;-56
2024/04/20 01:09:23;;;;;;;1.27;0.90;;;4.80;99.90;;;;;;5486358;25;20324;-54
2024/04/20 01:11:52;;;;;;;1.10;1.00;;;4.90;99.90;;;;;;5486395;26;20241;-54
2024/04/20 01:14:21;;;;;;;2.03;0.90;;;4.90;99.90;;;;;;5472253;26;20238;-53
2024/04/20 01:16:52;;;;;;;1.10;1.00;;;4.90;99.90;;;;;;5484030;26;20269;-53
2024/04/20 01:19:23;;;;;;;0.90;0.90;;;4.90;99.90;;;;;;5484199;26;21159;-54
2024/04/20 01:21:54;;;;;;;1.00;0.90;;;4.90;99.90;;;;;;5481395;26;20726;-57
2024/04/20 01:24:25;;;;;;;3.93;1.03;;;4.90;99.90;;;;;;5466257;26;20387;-52
2024/04/20 01:26:56;;;;;;;1.57;0.90;;;4.90;99.90;;;;;;5481266;26;20264;-55
2024/04/20 01:29:24;;;;;;;1.63;0.80;;;4.90;99.90;;;;;;5473863;25;20273;-50
2024/04/20 01:31:53;;;;;;;1.10;1.10;;;4.90;99.90;;;;;;5485657;26;20632;-54
2024/04/20 01:34:21;;;;;;;1.10;0.93;;;4.90;99.90;;;;;;5482970;26;20616;-53
2024/04/20 01:36:50;;;;;;;0.93;0.90;;;4.80;99.90;;;;;;5495335;26;20230;-53
2024/04/20 01:39:18;;;;;;;2.43;0.73;;;4.90;99.90;;;;;;5438684;26;21083;-54
2024/04/20 01:41:49;;;;;;;1.57;0.80;;;4.80;99.90;;;;;;5467322;26;20285;-54
2024/04/20 01:44:20;;;;;;;0.93;0.83;;;4.80;99.90;;;;;;5467761;26;20341;-54
2024/04/20 01:46:48;;;;;;;1.37;0.90;;;4.80;99.90;;;;;;5486615;26;20819;-53
2024/04/20 01:49:14;;;;;;;0.70;0.70;;;4.80;99.90;;;;;;5481195;26;20278;-55
2024/04/20 01:51:42;;;;;;;2.10;0.60;;;4.80;99.90;;;;;;5483984;26;21828;-52
2024/04/20 01:54:11;;;;;;;0.70;0.70;;;4.80;99.90;;;;;;5444756;26;20238;-52
2024/04/20 01:56:40;;;;;;;0.80;0.80;;;4.80;99.90;;;;;;5473518;26;20273;-55
2024/04/20 01:59:08;;;;;;;2.53;1.10;;;4.80;99.90;;;;;;5484128;26;21072;-53
2024/04/20 02:01:41;;;;;;;0.67;0.67;;;4.80;99.90;;;;;;5487655;25;20238;-53
2024/04/20 02:04:09;;;;;;;0.97;0.70;;;4.80;99.90;;;;;;5487900;26;20351;-56
2024/04/20 02:06:38;;;;;;;2.30;0.83;;;4.80;99.90;;;;;;5487947;26;20231;-50
2024/04/20 02:09:06;;;;;;;0.80;0.80;;;4.80;99.90;;;;;;5440638;26;20226;-55
2024/04/20 02:11:35;;;;;;;0.60;0.60;;;4.80;99.90;;;;;;5474823;26;20664;-55
2024/04/20 02:14:05;;;;;;;0.70;0.70;;;4.80;99.90;;;;;;5481589;26;20277;-55
2024/04/20 02:16:33;;;;;;;1.53;0.90;;;4.80;99.90;;;;;;5488136;26;20386;-54
2024/04/20 02:19:06;;;;;;;2.30;1.07;;;4.80;99.90;;;;;;5484493;26;20770;-56
2024/04/20 02:21:34;;;;;;;0.90;0.90;;;4.80;99.90;;;;;;5488767;26;20278;-55
2024/04/20 02:24:03;;;;;;;1.23;1.00;;;4.80;99.90;;;;;;5448313;26;20270;-54
2024/04/20 02:26:31;;;;;;;2.77;1.03;;;4.80;99.90;;;;;;5477982;26;20333;-52
2024/04/20 02:29:00;;;;;;;1.00;1.00;;;4.80;99.90;;;;;;5485941;26;20231;-55
2024/04/20 02:31:28;;;;;;;0.90;0.90;;;4.70;99.90;;;;;;5492905;26;20230;-51
2024/04/20 02:33:57;;;;;;;1.00;0.93;;;4.70;99.90;;;;;;5488986;26;20281;-54
2024/04/20 02:36:30;;;;;;;1.67;1.13;;;4.60;99.90;;;;;;5477935;26;20226;-52
2024/04/20 02:38:59;;;;;;;1.40;1.30;;;4.60;99.90;;;;;;5477246;26;20556;-56
2024/04/20 02:41:28;;;;;;;2.37;1.50;;;4.50;99.90;;;;;;5444614;26;20246;-55
2024/04/20 02:43:56;;;;;;;2.07;1.40;;;4.50;99.90;;;;;;5486964;26;20582;-54
2024/04/20 02:46:26;;;;;;;1.90;1.17;;;4.50;99.90;;;;;;5483529;25;20227;-56
2024/04/20 02:48:55;;;;;;;2.67;1.57;;;4.40;99.90;;;;;;5491685;26;20241;-55
2024/04/20 02:51:23;;;;;;;3.50;1.67;;;4.40;99.90;;;;;;5472027;26;20235;-54
2024/04/20 02:53:52;;;;;;;2.10;1.70;;;4.30;99.90;;;;;;5488129;26;20222;-54
2024/04/20 02:56:20;;;;;;;4.60;1.80;;;4.30;99.90;;;;;;5441741;26;20297;-53
2024/04/20 02:58:49;;;;;;;1.80;1.70;;;4.20;99.90;;;;;;5488718;26;20274;-54
2024/04/20 03:01:18;;;;;;;1.60;1.50;;;4.20;99.90;;;;;;5482625;26;20230;-54
2024/04/20 03:03:46;;;;;;;1.63;1.53;;;4.10;99.90;;;;;;5482063;26;20493;-55
2024/04/20 03:06:15;;;;;;;2.60;1.80;;;4.10;99.90;;;;;;5470301;26;20577;-54
2024/04/20 03:08:44;;;;;;;1.87;1.70;;;4.00;99.90;;;;;;5495250;26;20293;-51
2024/04/20 03:11:15;;;;;;;2.77;1.63;;;4.00;99.90;;;;;;5448114;26;20254;-52
2024/04/20 03:13:43;;;;;;;3.80;1.17;;;4.00;99.90;;;;;;5488805;26;20245;-52
2024/04/20 03:16:12;;;;;;;1.70;1.50;;;3.90;99.90;;;;;;5485023;26;20341;-53
2024/04/20 03:18:41;;;;;;;1.77;1.27;;;3.90;99.90;;;;;;5477995;26;20322;-53
2024/04/20 03:21:09;;;;;;;1.30;1.17;;;3.90;99.90;;;;;;5479792;26;20313;-55
2024/04/20 03:23:38;;;;;;;3.17;1.80;;;3.80;99.90;;;;;;5489425;26;20788;-53
2024/04/20 03:26:06;;;;;;;2.47;1.60;;;3.80;99.90;;;;;;5461298;26;20280;-57
2024/04/20 03:28:37;;;;;;;1.60;1.50;;;3.80;99.90;;;;;;5492166;26;20243;-52
2024/04/20 03:31:06;;;;;;;1.50;1.40;;;3.70;99.90;;;;;;5480355;26;20265;-55
2024/04/20 03:33:35;;;;;;;1.87;1.50;;;3.60;99.90;;;;;;5477842;25;20227;-54
2024/04/20 03:36:04;;;;;;;2.17;1.90;;;3.60;99.90;;;;;;5482542;26;20328;-52
2024/04/20 03:38:32;;;;;;;2.67;1.50;;;3.60;99.90;;;;;;5495257;26;20276;-52
2024/04/20 03:41:03;;;;;;;1.70;1.60;;;3.50;99.90;;;;;;5484296;26;20269;-52
2024/04/20 03:43:32;;;;;;;2.20;1.50;;;3.50;99.90;;;;;;5443168;26;20246;-52
2024/04/20 03:46:03;;;;;;;1.40;1.30;;;3.40;99.90;;;;;;5476473;26;20277;-55
2024/04/20 03:48:32;;;;;;;2.67;1.67;;;3.40;99.90;;;;;;5478018;26;20250;-51
2024/04/20 03:51:01;;;;;;;1.37;1.23;;;3.30;99.90;;;;;;5492948;26;20293;-53
2024/04/20 03:53:30;;;;;;;1.90;1.30;;;3.30;99.90;;;;;;5491390;26;20766;-53
2024/04/20 03:55:58;;;;;;;1.53;1.43;;;3.20;99.90;;;;;;5490812;26;20238;-55
2024/04/20 03:58:27;;;;;;;2.03;1.60;;;3.30;99.90;;;;;;5442193;26;20796;-54
2024/04/20 04:00:55;;;;;;;3.23;1.60;;;3.20;99.90;;;;;;5478556;25;20233;-54
2024/04/20 04:03:28;;;;;;;1.70;1.43;;;3.20;99.90;;;;;;5483375;26;20225;-52
2024/04/20 04:05:57;;;;;;;2.30;1.53;;;3.20;99.90;;;;;;5490129;26;20230;-55
2024/04/20 04:08:26;;;;;;;1.53;1.43;;;3.20;99.90;;;;;;5484079;26;20272;-52
2024/04/20 04:10:54;;;;;;;1.63;1.53;;;3.20;99.90;;;;;;5493727;26;20234;-55
2024/04/20 04:13:23;;;;;;;1.83;1.73;;;3.20;99.90;;;;;;5435406;26;20245;-51
2024/04/20 04:15:51;;;;;;;1.70;1.33;;;3.20;99.90;;;;;;5479191;25;20229;-55
2024/04/20 04:18:21;;;;;;;1.37;1.20;;;3.10;99.90;;;;;;5484526;26;20321;-52
2024/04/20 04:20:52;;;;;;;2.63;1.40;;;3.10;99.90;;;;;;5483806;26;20235;-53
2024/04/20 04:23:21;;;;;;;1.20;1.10;;;3.10;99.90;;;;;;5476491;26;20743;-53
2024/04/20 04:25:49;;;;;;;1.47;1.37;;;3.10;99.90;;;;;;5485289;25;20340;-55
2024/04/20 04:28:18;;;;;;;1.30;1.20;;;3.00;99.90;;;;;;5432710;26;21138;-55
2024/04/20 04:30:46;;;;;;;1.73;1.40;;;3.10;99.90;;;;;;5473118;26;20293;-52
2024/04/20 04:33:15;;;;;;;2.70;1.30;;;3.10;99.90;;;;;;5479951;26;20232;-55
2024/04/20 04:35:44;;;;;;;1.40;1.10;;;3.10;99.90;;;;;;5488604;26;20366;-50
2024/04/20 04:38:15;;;;;;;1.47;1.37;;;3.10;99.90;;;;;;5481606;25;21106;-53
2024/04/20 04:40:43;;;;;;;1.23;1.13;;;3.10;99.90;;;;;;5485012;26;20360;-52
2024/04/20 04:43:12;;;;;;;3.47;1.37;;;3.10;99.90;;;;;;5465995;26;20246;-53
2024/04/20 04:45:40;;;;;;;1.43;1.33;;;3.10;99.90;;;;;;5435882;26;20253;-53
2024/04/20 04:48:09;;;;;;;1.30;1.20;;;3.10;99.90;;;;;;5472593;26;20234;-50
2024/04/20 04:50:38;;;;;;;5.73;1.60;;;3.00;99.90;;;;;;5483975;26;20253;-55
2024/04/20 04:53:07;;;;;;;3.83;1.53;;;3.10;99.90;;;;;;5484755;26;20989;-53
2024/04/20 04:55:38;;;;;;;1.43;1.33;;;3.10;99.90;;;;;;5472364;26;20231;-54
2024/04/20 04:58:07;;;;;;;1.60;1.50;;;3.00;99.90;;;;;;5474149;26;20743;-56
2024/04/20 05:00:35;;;;;;;1.37;1.27;;;3.00;99.90;;;;;;5435551;26;20272;-54
2024/04/20 05:03:01;;;;;;;1.80;1.70;;;3.10;99.90;;;;;;5459298;26;20233;-54
2024/04/20 05:05:31;;;;;;;2.37;1.80;;;3.10;99.90;;;;;;5474959;26;20316;-51
2024/04/20 05:07:59;;;;;;;2.03;1.43;;;3.10;99.90;;;;;;5466663;26;20229;-55
2024/04/20 05:10:29;;;;;;;2.00;1.60;;;3.10;99.90;;;;;;5471523;26;20233;-55
2024/04/20 05:13:00;;;;;;;1.47;1.37;;;3.10;99.90;;;;;;5474845;26;20246;-55
2024/04/20 05:15:29;;;;;;;1.60;1.50;;;3.10;99.90;;;;;;5454518;26;20745;-54
2024/04/20 05:17:58;;;;;;;2.57;1.47;;;3.10;99.90;;;;;;5469926;26;20281;-56
2024/04/20 05:20:27;;;;;;;1.27;1.17;;;3.20;99.90;;;;;;5475494;26;20577;-51
2024/04/20 05:22:55;;;;;;;2.80;2.00;;;3.20;99.90;;;;;;5466909;26;20371;-56
2024/04/20 05:25:23;;;;;;;1.43;1.33;;;3.20;99.90;;;;;;5481515;26;20230;-52
2024/04/20 05:27:52;;;;;;;4.07;1.43;;;3.20;99.90;;;;;;5474528;26;20233;-54
2024/04/20 05:30:23;;;;;;;1.90;1.70;;;3.20;99.90;;;;;;5482569;26;20226;-52
2024/04/20 05:32:54;;;;;;;2.67;1.63;;;3.30;99.90;;;;;;5427900;26;20247;-51
2024/04/20 05:35:23;;;;;;;1.60;1.50;;;3.30;99.90;;;;;;5455223;26;20237;-55
2024/04/20 05:37:51;;;;;;;2.17;1.60;;;3.30;99.90;;;;;;5470124;26;20318;-54
2024/04/20 05:40:20;;;;;;;2.17;1.60;;;3.40;99.90;;;;;;5472627;25;20230;-53
2024/04/20 05:42:48;;;;;;;2.97;2.00;;;3.40;99.90;;;;;;5484661;26;20279;-51
2024/04/20 05:45:23;;;;;;;2.67;1.40;;;3.50;99.90;;;;;;5475909;26;20566;-54
2024/04/20 05:47:54;;;;;;;2.27;1.97;;;3.50;99.90;;;;;;5452470;26;20292;-52
2024/04/20 05:50:23;;;;;;;1.53;1.43;;;3.50;99.90;;;;;;5443245;26;21843;-50
2024/04/20 05:52:51;;;;;;;1.90;1.53;;;3.60;99.90;;;;;;5449056;26;20235;-52
2024/04/20 05:55:20;;;;;;;2.80;1.80;;;3.60;99.90;;;;;;5469563;26;21151;-53
2024/04/20 05:57:49;;;;;;;2.20;2.00;;;3.70;99.90;;;;;;5481662;26;20269;-51
2024/04/20 06:00:15;;;;;;;2.40;1.93;;;3.80;99.90;;;;;;5478910;26;20223;-55
2024/04/20 06:02:44;;;;;;;3.53;1.57;;;3.90;99.90;;;;;;5438312;26;20577;-54
2024/04/20 06:05:15;;;;;;;2.07;1.87;;;3.90;99.90;;;;;;5444966;26;21022;-54
2024/04/20 06:07:43;;;;;;;1.87;1.63;;;4.00;99.90;;;;;;5465716;26;20276;-56
2024/04/20 06:10:12;;;;;;;1.73;1.63;;;4.00;99.90;;;;;;5469384;26;20237;-55
2024/04/20 06:12:41;;;;;;;2.00;1.63;;;4.10;99.90;;;;;;5489397;26;20310;-51
2024/04/20 06:15:10;;;;;;;1.57;1.47;;;4.20;99.90;;;;;;5486278;25;20343;-57
2024/04/20 06:17:38;;;;;;;2.00;1.90;;;4.20;99.90;;;;;;5442095;26;20310;-55
2024/04/20 06:20:08;;;;;;;5.33;2.13;;;4.30;99.90;;;;;;5447508;26;20263;-55
2024/04/20 06:22:39;;;;;;;2.80;1.43;;;4.40;99.90;;;;;;5480065;26;20242;-53
2024/04/20 06:25:08;;;;;;;1.60;1.50;;;4.50;99.90;;;;;;5475265;26;20277;-55
2024/04/20 06:27:37;;;;;;;2.70;1.40;;;4.60;99.90;;;;;;5497838;26;20234;-55
2024/04/20 06:30:07;;;;;;;2.73;1.60;;;4.70;99.90;;;;;;5491052;26;20265;-56
2024/04/20 06:32:35;;;;;;;2.67;1.40;;;4.80;99.90;;;;;;5466414;26;20227;-52
2024/04/20 06:35:04;;;;;;;2.40;1.70;;;4.80;99.90;;;;;;5441690;26;20243;-56
2024/04/20 06:37:32;;;;;;;2.03;1.47;;;4.90;99.90;;;;;;5443262;26;20784;-59
2024/04/20 06:40:03;;;;;;;3.37;1.80;;;4.90;99.90;;;;;;5470922;26;20582;-55
2024/04/20 06:42:32;;;;;;;2.00;1.47;;;5.10;99.90;;;;;;5479967;26;20253;-57
2024/04/20 06:45:01;;;;;;;2.90;1.60;;;5.20;99.90;;;;;;5471556;26;20273;-53
2024/04/20 06:47:29;;;;;;;2.70;1.87;;;5.30;99.90;;;;;;5470611;26;20289;-56
2024/04/20 06:49:58;;;;;;;1.90;1.80;;;5.30;99.90;;;;;;5446920;26;20253;-54
2024/04/20 06:52:27;;;;;;;2.37;1.87;;;5.40;99.90;;;;;;5437037;26;20235;-55
2024/04/20 06:54:55;;;;;;;2.10;1.90;;;5.50;99.90;;;;;;5472371;26;20242;-55
2024/04/20 06:57:26;;;;;;;3.10;1.93;;;5.70;99.90;;;;;;5455583;26;20572;-57
2024/04/20 06:59:58;;;;;;;1.70;1.60;;;5.80;99.90;;;;;;5458768;26;20227;-53
2024/04/20 07:02:26;;;;;;;3.63;1.77;;;5.80;99.90;;;;;;5471267;25;20261;-54
2024/04/20 07:04:55;;;;;;;1.83;1.60;;;5.80;99.90;;;;;;5445644;26;20253;-52
2024/04/20 07:07:23;;;;;;;3.13;1.67;;;5.90;99.90;;;;;;5469550;26;20231;-56
2024/04/20 07:09:52;;;;;;;2.42;2.15;;;5.90;99.90;;;;;;5462736;26;20434;-53
2024/04/20 07:12:21;;;;;;;2.63;1.97;;;6.10;99.90;;;;;;5457017;26;20267;-56
2024/04/20 07:14:52;;;;;;;3.87;1.87;;;6.20;99.90;;;;;;5459588;26;20266;-55
2024/04/20 07:17:20;;;;;;;1.83;1.73;;;6.20;99.90;;;;;;5478509;26;20235;-54
2024/04/20 07:19:49;;;;;;;2.43;1.93;;;6.30;99.90;;;;;;5486842;26;20280;-53
2024/04/20 07:22:17;;;;;;;2.03;1.60;;;6.40;99.90;;;;;;5439548;26;20245;-57
2024/04/20 07:24:46;;;;;;;2.37;2.00;;;6.50;99.90;;;;;;5472927;26;20288;-52
2024/04/20 07:27:14;;;;;;;3.20;2.23;;;6.50;99.90;;;;;;5487088;25;20359;-54
2024/04/20 07:29:42;;;;;;;3.00;2.03;;;6.60;99.90;;;;;;5473169;26;20381;-50
2024/04/20 07:32:14;;;;;;;2.03;1.60;;;6.70;99.90;;;;;;5481854;26;20239;-56
2024/04/20 07:34:42;;;;;;;1.77;1.60;;;6.80;99.90;;;;;;5475524;26;20225;-53
2024/04/20 07:37:10;;;;;;;3.37;1.60;;;6.90;99.90;;;;;;5438406;26;20600;-56
2024/04/20 07:39:39;;;;;;;1.60;1.40;;;6.90;99.90;;;;;;5483629;26;20227;-51
2024/04/20 07:42:08;;;;;;;2.13;1.87;;;6.90;99.90;;;;;;5458906;26;20762;-55
2024/04/20 07:44:36;;;;;;;2.37;1.90;;;7.00;99.90;;;;;;5446379;25;20509;-52
2024/04/20 07:47:05;;;;;;;2.70;1.50;;;7.10;99.90;;;;;;5488633;26;20666;-55
2024/04/20 07:49:36;;;;;;;2.47;1.80;;;7.00;99.90;;;;;;5475856;26;20227;-52
2024/04/20 07:52:05;;;;;;;2.60;1.60;;;6.90;99.90;;;;;;5454245;26;20249;-52
2024/04/20 07:54:33;;;;;;;2.60;2.30;;;6.90;99.90;;;;;;5476406;26;20565;-55
2024/04/20 07:57:02;;;;;;;2.33;2.03;;;6.90;99.90;;;;;;5469764;25;20239;-56
2024/04/20 07:59:30;;;;;;;2.23;1.90;;;6.90;99.90;;;;;;5451112;26;21007;-55
2024/04/20 08:01:59;;;;;;;1.53;1.43;;;7.00;99.90;;;;;;5481940;26;20325;-52
2024/04/20 08:04:28;;;;;;;1.93;1.80;;;7.10;99.90;;;;;;5473381;26;20230;-51
2024/04/20 08:06:59;;;;;;;2.23;1.83;;;7.10;99.90;;;;;;5488086;26;20775;-51
2024/04/20 08:09:27;;;;;;;2.17;1.80;;;7.10;99.90;;;;;;5411507;26;20242;-53
2024/04/20 08:11:56;;;;;;;4.53;1.70;;;7.10;99.90;;;;;;5462653;26;20242;-49
2024/04/20 08:14:24;;;;;;;2.33;2.10;;;7.10;99.90;;;;;;5458273;26;20302;-54
2024/04/20 08:16:54;;;;;;;2.43;1.60;;;7.10;99.90;;;;;;5480679;26;20736;-56
2024/04/20 08:19:22;;;;;;;3.17;1.50;;;7.20;99.90;;;;;;5461514;26;20239;-53
2024/04/20 08:21:51;;;;;;;2.13;1.93;;;7.30;99.90;;;;;;5479604;26;20622;-53
2024/04/20 08:24:22;;;;;;;1.90;1.80;;;7.30;99.90;;;;;;5418798;26;20242;-54
2024/04/20 08:26:50;;;;;;;1.90;1.50;;;7.30;99.90;;;;;;5466050;26;20591;-51
2024/04/20 08:29:19;;;;;;;1.93;1.73;;;7.30;99.90;;;;;;5467493;26;20465;-55
2024/04/20 08:31:47;;;;;;;3.13;2.37;;;7.20;99.90;;;;;;5472613;26;20732;-53
2024/04/20 08:34:16;;;;;;;2.60;1.93;;;7.30;99.90;;;;;;5469065;26;20277;-55
2024/04/20 08:36:45;;;;;;;2.53;1.70;;;7.40;99.90;;;;;;5473640;26;20230;-54
2024/04/20 08:39:14;;;;;;;3.93;2.17;;;7.40;99.90;;;;;;5427045;26;20680;-56
2024/04/20 08:41:50;;;;;;;2.60;1.80;;;7.40;99.90;;;;;;5472876;26;20717;-53
2024/04/20 08:44:21;;;;;;;2.53;1.83;;;7.40;99.90;;;;;;5472544;26;20284;-53
2024/04/20 08:46:51;;;;;;;1.60;1.50;;;7.50;99.90;;;;;;5481786;26;20246;-55
2024/04/20 08:49:23;;;;;;;1.77;1.67;;;7.50;99.90;;;;;;5461180;26;20381;-56
2024/04/20 08:51:52;;;;;;;3.57;1.83;;;7.50;99.90;;;;;;5464613;26;20235;-54
2024/04/20 08:54:21;;;;;;;2.40;1.63;;;7.50;99.90;;;;;;5432639;26;20376;-55
2024/04/20 08:56:52;;;;;;;2.03;1.40;;;7.60;99.90;;;;;;5473537;26;20234;-54
2024/04/20 08:59:20;;;;;;;2.07;1.87;;;7.60;99.90;;;;;;5457980;26;20238;-55
2024/04/20 09:01:50;;;;;;;4.13;1.77;;;7.80;99.90;;;;;;5466945;26;20289;-53
2024/04/20 09:04:20;;;;;;;2.37;1.83;;;7.90;99.90;;;;;;5462519;26;20242;-54
2024/04/20 09:06:49;;;;;;;1.40;1.30;;;7.90;99.90;;;;;;5480540;26;20326;-54
2024/04/20 09:09:20;;;;;;;2.40;1.77;;;8.00;99.90;;;;;;5442377;26;27532;-53
2024/04/20 09:11:51;;;;;;;2.63;1.60;;;7.90;99.90;;;;;;5492373;26;20541;-50
2024/04/20 09:14:23;;;;;;;3.07;1.50;;;8.00;99.90;;;;;;5463705;26;20242;-51
2024/04/20 09:16:51;;;;;;;1.77;1.53;;;7.90;99.90;;;;;;5475477;26;20332;-53
2024/04/20 09:19:20;;;;;;;1.43;1.33;;;7.90;99.90;;;;;;5457580;26;20246;-54
2024/04/20 09:21:48;;;;;;;1.30;1.20;;;7.80;99.90;;;;;;5467558;26;20729;-53
2024/04/20 09:24:17;;;;;;;1.50;1.40;;;7.80;99.90;;;;;;5437905;26;20299;-54
2024/04/20 09:26:53;;;;;;;2.70;1.40;;;7.80;99.90;;;;;;5485703;25;20234;-51
2024/04/20 09:29:23;;;;;;;1.47;1.37;;;7.80;99.90;;;;;;5491037;26;20229;-52
2024/04/20 09:31:52;;;;;;;2.13;1.37;;;7.70;99.90;;;;;;5477706;26;20235;-57
2024/04/20 09:34:23;;;;;;;2.90;1.50;;;7.80;99.90;;;;;;5459146;26;20235;-57
2024/04/20 09:36:52;;;;;;;1.50;1.40;;;7.80;99.90;;;;;;5483890;26;20237;-51
2024/04/20 09:39:21;;;;;;;4.00;1.40;;;7.80;99.90;;;;;;5479450;26;20334;-52
2024/04/20 09:41:54;;;;;;;1.07;0.97;;;7.90;99.90;;;;;;5460331;26;20253;-55
2024/04/20 09:44:23;;;;;;;1.93;1.00;;;7.90;99.90;;;;;;5467899;26;20230;-52
2024/04/20 09:46:53;;;;;;;1.10;1.00;;;7.90;99.90;;;;;;5463076;26;20235;-55
2024/04/20 09:49:29;;;;;;;4.13;1.73;;;7.80;99.90;;;;;;5477126;26;20229;-50
2024/04/20 09:52:03;;;;;;;1.70;1.60;;;7.80;99.90;;;;;;5488146;26;20365;-55
2024/04/20 09:54:34;;;;;;;2.20;1.20;;;7.70;99.90;;;;;;5495050;26;20316;-55
2024/04/20 09:57:07;;;;;;;1.40;1.30;;;7.60;99.90;;;;;;5445827;26;20305;-54
2024/04/20 09:59:38;;;;;;;1.57;1.13;;;7.60;99.90;;;;;;5476357;26;20238;-57
2024/04/20 10:02:08;;;;;;;2.67;1.70;;;7.70;99.90;;;;;;5449687;26;20238;-56
2024/04/20 10:04:39;;;;;;;1.87;1.40;;;7.80;99.90;;;;;;5485710;26;20264;-52
2024/04/20 10:07:09;;;;;;;1.52;1.40;;;7.80;99.90;;;;;;5470513;26;20351;-56
2024/04/20 10:09:41;;;;;;;2.17;1.20;;;8.00;99.90;;;;;;5484571;26;20278;-55
2024/04/20 10:12:14;;;;;;;1.40;1.20;;;8.00;99.90;;;;;;5441187;26;20309;-55
2024/04/20 10:14:45;;;;;;;1.17;0.90;;;7.90;99.90;;;;;;5473805;26;20230;-55
2024/04/20 10:17:14;;;;;;;1.20;0.87;;;7.80;99.90;;;;;;5448387;26;20288;-54
2024/04/20 10:19:44;;;;;;;2.50;1.17;;;7.50;99.90;;;;;;5477967;26;20266;-55
2024/04/20 10:22:13;;;;;;;0.70;0.70;;;7.30;99.90;;;;;;5457939;26;20277;-52
2024/04/20 10:24:54;;;;;;;1.23;0.80;;;7.00;99.90;;;;;;5474367;26;20284;-51
2024/04/20 10:27:30;;;;;;;2.00;1.00;;;6.80;99.90;;;;;;5436874;26;20252;-57
2024/04/20 10:30:12;;;;;;;0.80;0.80;;;6.70;99.90;;;;;;5444488;26;20242;-55
2024/04/20 10:32:41;;;;;;;0.90;0.90;;;6.60;99.90;;;;;;5480054;26;20243;-55
2024/04/20 10:35:10;;;;;;;1.00;0.93;;;6.50;99.90;;;;;;5479877;26;20281;-53
2024/04/20 10:37:39;;;;;;;0.97;0.90;;;6.50;99.90;;;;;;5477174;26;20243;-55
2024/04/20 10:40:13;;;;;;;0.77;0.77;;;6.40;99.90;;;;;;5493501;25;20387;-52
2024/04/20 10:42:44;;;;;;;0.90;0.80;;;6.40;99.90;;;;;;5436187;26;20357;-54
2024/04/20 10:45:15;;;;;;;0.73;0.50;;;6.40;99.90;;;;;;5446002;26;20280;-56
2024/04/20 10:47:41;;;;;;;1.10;1.10;;;6.50;99.90;;;;;;5494790;26;20233;-51
2024/04/20 10:50:11;;;;;;;1.73;1.07;;;6.50;99.90;;;;;;5455078;26;20246;-55
2024/04/20 10:52:40;;;;;;;0.77;0.77;;;6.50;99.90;;;;;;5485985;26;20242;-54
2024/04/20 10:55:14;;;;;;;1.37;0.60;;;6.60;99.90;;;;;;5474071;26;20528;-54
2024/04/20 10:57:47;;;;;;;1.13;0.60;;;6.80;99.90;;;;;;5476016;26;20229;-55
2024/04/20 11:00:22;;;;;;;1.80;0.80;;;6.70;99.90;;;;;;5426846;26;20486;-51
2024/04/20 11:02:54;;;;;;;0.57;0.57;;;6.80;99.90;;;;;;5491134;25;20237;-56
2024/04/20 11:05:24;;;;;;;1.30;0.97;;;7.00;99.90;;;;;;5453964;26;20264;-51
2024/04/20 11:08:00;;;;;;;0.70;0.70;;;6.90;99.90;;;;;;5489025;26;20229;-55
2024/04/20 11:10:29;;;;;;;0.80;0.80;;;7.20;99.90;;;;;;5466277;25;21120;-54
2024/04/20 11:13:05;;;;;;;0.60;0.60;;;7.40;99.90;;;;;;5471449;26;20234;-57
2024/04/20 11:15:35;;;;;;;1.40;0.80;;;7.30;99.90;;;;;;5477175;26;20328;-55
2024/04/20 11:18:04;;;;;;;0.70;0.70;;;7.30;99.90;;;;;;5466805;26;20260;-57
2024/04/20 11:20:32;;;;;;;0.80;0.70;;;7.30;99.90;;;;;;5450912;26;20360;-54
2024/04/20 11:23:03;;;;;;;0.90;0.60;;;7.40;99.90;;;;;;5472433;26;20311;-55
2024/04/20 11:25:32;;;;;;;0.70;0.70;;;7.50;99.90;;;;;;5466727;26;20291;-54
2024/04/20 11:28:04;;;;;;;0.63;0.63;;;7.50;99.90;;;;;;5481694;26;20231;-55
2024/04/20 11:30:39;;;;;;;0.70;0.63;;;7.50;99.90;;;;;;5424419;26;20243;-50
2024/04/20 11:33:08;;;;;;;0.40;0.40;;;7.60;99.90;;;;;;5469016;26;20366;-56
2024/04/20 11:35:37;;;;;;;0.50;0.50;;;7.60;99.90;;;;;;5479798;26;20719;-53
2024/04/20 11:38:06;;;;;;;0.50;0.50;;;7.60;99.90;;;;;;5455786;26;20274;-56
2024/04/20 11:40:35;;;;;;;0.50;0.50;;;7.60;99.90;;;;;;5471836;25;20628;-51
2024/04/20 11:43:06;;;;;;;0.87;0.73;;;7.70;99.90;;;;;;5469846;26;20289;-52
2024/04/20 11:45:35;;;;;;;0.60;0.60;;;7.80;99.90;;;;;;5439038;26;20243;-55
2024/04/20 11:48:09;;;;;;;1.73;0.90;;;7.90;99.90;;;;;;5470888;26;20264;-53
2024/04/20 11:50:35;;;;;;;0.67;0.67;;;8.00;99.90;;;;;;5467149;26;20314;-56
2024/04/20 11:55:49;;;;;;;0.50;0.50;;;8.10;99.90;;;;;;5489129;26;20356;-56
2024/04/20 11:58:20;;;;;;;0.60;0.60;;;8.20;99.90;;;;;;5467055;26;20235;-52
2024/04/20 12:00:53;;;;;;;0.80;0.70;;;8.30;99.90;;;;;;5474914;26;20870;-57
2024/04/20 12:03:21;;;;;;;0.77;0.53;;;8.30;99.90;;;;;;5465541;26;20335;-57
2024/04/20 12:05:50;;;;;;;0.77;0.53;;;8.50;99.90;;;;;;5465172;26;20248;-57
2024/04/20 12:08:18;;;;;;;0.50;0.50;;;8.50;99.90;;;;;;5449082;26;20238;-53
2024/04/20 12:10:47;;;;;;;0.50;0.50;;;8.40;99.90;;;;;;5475485;26;20302;-56
2024/04/20 12:13:16;;;;;;;0.93;0.70;;;8.40;99.90;;;;;;5465372;26;20799;-54
2024/04/20 12:15:47;;;;;;;0.60;0.60;;;8.30;99.90;;;;;;5474961;26;20293;-57
2024/04/20 12:18:15;;;;;;;0.80;0.80;;;8.30;99.90;;;;;;5437960;26;20235;-56
2024/04/20 12:20:44;;;;;;;0.70;0.70;;;8.30;99.90;;;;;;5481055;26;20231;-54
2024/04/20 12:23:13;;;;;;;0.50;0.50;;;8.40;99.90;;;;;;5470905;26;20276;-50
2024/04/20 12:25:49;;;;;;;0.80;0.80;;;8.50;99.90;;;;;;5467766;26;21040;-51
2024/04/20 12:28:17;;;;;;;1.30;0.70;;;8.60;99.90;;;;;;5477060;26;20230;-52
2024/04/20 12:30:49;;;;;;;1.60;0.60;;;8.50;99.90;;;;;;5487644;26;20230;-57
2024/04/20 12:33:17;;;;;;;0.57;0.53;;;8.60;99.90;;;;;;5436806;25;20250;-53
2024/04/20 12:35:47;;;;;;;0.80;0.80;;;8.50;99.90;;;;;;5445145;26;21035;-52
2024/04/20 12:38:16;;;;;;;0.50;0.50;;;8.50;99.90;;;;;;5463568;26;20277;-54
2024/04/20 12:40:44;;;;;;;0.73;0.70;;;8.80;99.90;;;;;;5464264;26;21056;-56
2024/04/20 12:43:13;;;;;;;0.87;0.80;;;9.00;99.90;;;;;;5479126;26;20237;-53
2024/04/20 12:45:41;;;;;;;0.70;0.70;;;9.10;99.90;;;;;;5479073;26;20231;-54
2024/04/20 12:48:13;;;;;;;0.50;0.47;;;9.20;99.90;;;;;;5416582;26;20746;-51
2024/04/20 12:50:42;;;;;;;0.50;0.50;;;9.40;99.90;;;;;;5478099;26;20686;-54
2024/04/20 12:53:10;;;;;;;0.83;0.70;;;9.40;99.90;;;;;;5464231;26;20239;-54
2024/04/20 12:55:38;;;;;;;1.10;0.70;;;9.50;99.90;;;;;;5466688;26;20239;-55
2024/04/20 12:58:07;;;;;;;0.80;0.80;;;9.30;99.90;;;;;;5479378;26;20284;-51
2024/04/20 13:00:35;;;;;;;0.50;0.50;;;9.40;99.90;;;;;;5455169;26;21160;-52
2024/04/20 13:03:05;;;;;;;0.50;0.50;;;9.50;99.90;;;;;;5428958;26;20293;-53
2024/04/20 13:05:36;;;;;;;1.73;0.53;;;9.80;99.90;;;;;;5479292;26;20227;-54
2024/04/20 13:08:02;;;;;;;0.50;0.50;;;9.60;99.90;;;;;;5457054;26;20627;-52
2024/04/20 13:10:30;;;;;;;0.63;0.50;;;9.50;99.90;;;;;;5459684;26;20350;-54
2024/04/20 13:12:59;;;;;;;0.77;0.77;;;9.40;99.90;;;;;;5484621;26;20333;-53